Terminal Aerodrome Forecast
Issued by NWS Jackson, MS

Home | Current Version | Previous Version | Text Only | Print | Product List | Glossary On
Versions: 1 2 3 4 5 6 7 8 9 10 11 12 13 14
000
FTUS44 KJAN 280653 AAA
TAFGWO
TAF AMD
KGWO 280653Z 2807/2906 11003KT P6SM BKN006
     FM281000 15003KT 3SM BR OVC005
     FM281400 15003KT P6SM OVC015
     FM281500 15004KT P6SM BKN020
     FM281600 16006KT P6SM SCT040=

USA.gov is the U.S. government's official web portal to all federal, state and local government web resources and services.